sensor_id;sensor_type;location;lat;lon;timestamp;P1;durP1;ratioP1;P2;durP2;ratioP2
69417;SDS011;56610;48.872;2.400;2023-05-10T00:01:37;6.15;;;1.63;;
69417;SDS011;56610;48.872;2.400;2023-05-10T00:04:03;5.65;;;1.48;;
69417;SDS011;56610;48.872;2.400;2023-05-10T00:06:28;6.13;;;1.60;;
69417;SDS011;56610;48.872;2.400;2023-05-10T00:08:55;6.68;;;1.52;;
69417;SDS011;56610;48.872;2.400;2023-05-10T00:11:21;5.85;;;1.23;;
69417;SDS011;56610;48.872;2.400;2023-05-10T00:13:47;6.03;;;1.40;;
69417;SDS011;56610;48.872;2.400;2023-05-10T00:16:13;5.78;;;1.58;;
69417;SDS011;56610;48.872;2.400;2023-05-10T00:18:38;4.07;;;1.48;;
69417;SDS011;56610;48.872;2.400;2023-05-10T00:21:04;4.30;;;1.40;;
69417;SDS011;56610;48.872;2.400;2023-05-10T00:23:30;6.97;;;1.30;;
69417;SDS011;56610;48.872;2.400;2023-05-10T00:25:56;4.82;;;1.38;;
69417;SDS011;56610;48.872;2.400;2023-05-10T00:28:21;3.22;;;0.98;;
69417;SDS011;56610;48.872;2.400;2023-05-10T00:30:47;3.10;;;1.00;;
69417;SDS011;56610;48.872;2.400;2023-05-10T00:33:13;3.40;;;1.13;;
69417;SDS011;56610;48.872;2.400;2023-05-10T00:35:38;3.95;;;1.05;;
69417;SDS011;56610;48.872;2.400;2023-05-10T00:38:04;3.78;;;0.95;;
69417;SDS011;56610;48.872;2.400;2023-05-10T00:40:29;5.78;;;1.65;;
69417;SDS011;56610;48.872;2.400;2023-05-10T00:42:55;5.00;;;1.10;;
69417;SDS011;56610;48.872;2.400;2023-05-10T00:45:22;3.22;;;1.05;;
69417;SDS011;56610;48.872;2.400;2023-05-10T00:47:48;2.63;;;0.80;;
69417;SDS011;56610;48.872;2.400;2023-05-10T00:50:14;3.78;;;1.13;;
69417;SDS011;56610;48.872;2.400;2023-05-10T00:52:40;4.07;;;1.00;;
69417;SDS011;56610;48.872;2.400;2023-05-10T00:55:07;3.42;;;1.00;;
69417;SDS011;56610;48.872;2.400;2023-05-10T00:57:34;3.95;;;1.00;;
69417;SDS011;56610;48.872;2.400;2023-05-10T01:00:00;3.60;;;1.38;;
69417;SDS011;56610;48.872;2.400;2023-05-10T01:02:27;5.47;;;1.38;;
69417;SDS011;56610;48.872;2.400;2023-05-10T01:04:52;3.75;;;1.08;;
69417;SDS011;56610;48.872;2.400;2023-05-10T01:07:19;2.45;;;1.05;;
69417;SDS011;56610;48.872;2.400;2023-05-10T01:09:44;3.85;;;0.85;;
69417;SDS011;56610;48.872;2.400;2023-05-10T01:12:10;2.25;;;0.90;;
69417;SDS011;56610;48.872;2.400;2023-05-10T01:14:36;1.70;;;0.70;;
69417;SDS011;56610;48.872;2.400;2023-05-10T01:19:48;3.22;;;0.80;;
69417;SDS011;56610;48.872;2.400;2023-05-10T01:33:55;5.38;;;1.30;;
69417;SDS011;56610;48.872;2.400;2023-05-10T01:36:35;3.05;;;0.93;;
69417;SDS011;56610;48.872;2.400;2023-05-10T01:39:16;7.05;;;0.98;;
69417;SDS011;56610;48.872;2.400;2023-05-10T01:41:49;4.68;;;0.75;;
69417;SDS011;56610;48.872;2.400;2023-05-10T01:44:56;4.30;;;0.95;;
69417;SDS011;56610;48.872;2.400;2023-05-10T01:47:17;3.25;;;0.80;;
69417;SDS011;56610;48.872;2.400;2023-05-10T01:49:54;3.15;;;0.98;;
69417;SDS011;56610;48.872;2.400;2023-05-10T01:52:25;4.18;;;0.90;;
69417;SDS011;56610;48.872;2.400;2023-05-10T01:54:55;6.72;;;1.13;;
69417;SDS011;56610;48.872;2.400;2023-05-10T01:57:32;4.43;;;1.00;;
69417;SDS011;56610;48.872;2.400;2023-05-10T02:00:00;2.30;;;0.75;;
69417;SDS011;56610;48.872;2.400;2023-05-10T02:02:28;1.45;;;0.60;;
69417;SDS011;56610;48.872;2.400;2023-05-10T02:04:57;3.20;;;0.82;;
69417;SDS011;56610;48.872;2.400;2023-05-10T02:07:24;1.58;;;0.60;;
69417;SDS011;56610;48.872;2.400;2023-05-10T02:09:50;2.28;;;0.75;;
69417;SDS011;56610;48.872;2.400;2023-05-10T02:12:16;2.67;;;0.93;;
69417;SDS011;56610;48.872;2.400;2023-05-10T02:14:43;3.03;;;1.00;;
69417;SDS011;56610;48.872;2.400;2023-05-10T02:17:10;3.50;;;0.98;;
69417;SDS011;56610;48.872;2.400;2023-05-10T02:19:37;3.80;;;0.80;;
69417;SDS011;56610;48.872;2.400;2023-05-10T02:22:05;3.28;;;0.85;;
69417;SDS011;56610;48.872;2.400;2023-05-10T02:24:53;1.30;;;0.60;;
69417;SDS011;56610;48.872;2.400;2023-05-10T02:27:23;4.10;;;0.80;;
69417;SDS011;56610;48.872;2.400;2023-05-10T02:29:51;1.23;;;0.57;;
69417;SDS011;56610;48.872;2.400;2023-05-10T02:32:17;1.35;;;0.40;;
69417;SDS011;56610;48.872;2.400;2023-05-10T02:34:44;1.80;;;0.60;;
69417;SDS011;56610;48.872;2.400;2023-05-10T02:37:12;2.50;;;0.90;;
69417;SDS011;56610;48.872;2.400;2023-05-10T02:39:39;1.77;;;0.82;;
69417;SDS011;56610;48.872;2.400;2023-05-10T02:42:10;2.50;;;0.57;;
69417;SDS011;56610;48.872;2.400;2023-05-10T02:45:00;2.80;;;0.63;;
69417;SDS011;56610;48.872;2.400;2023-05-10T02:47:28;1.10;;;0.60;;
69417;SDS011;56610;48.872;2.400;2023-05-10T02:49:54;2.55;;;0.82;;
69417;SDS011;56610;48.872;2.400;2023-05-10T02:52:24;3.03;;;0.60;;
69417;SDS011;56610;48.872;2.400;2023-05-10T02:54:54;6.25;;;0.70;;
69417;SDS011;56610;48.872;2.400;2023-05-10T02:57:28;2.85;;;0.68;;
69417;SDS011;56610;48.872;2.400;2023-05-10T02:59:56;2.40;;;0.60;;
69417;SDS011;56610;48.872;2.400;2023-05-10T03:02:23;0.93;;;0.52;;
69417;SDS011;56610;48.872;2.400;2023-05-10T03:04:49;2.10;;;0.70;;
69417;SDS011;56610;48.872;2.400;2023-05-10T03:07:14;2.55;;;0.40;;
69417;SDS011;56610;48.872;2.400;2023-05-10T03:09:40;1.45;;;0.52;;
69417;SDS011;56610;48.872;2.400;2023-05-10T03:15:13;2.75;;;0.70;;
69417;SDS011;56610;48.872;2.400;2023-05-10T03:17:50;2.33;;;0.88;;
69417;SDS011;56610;48.872;2.400;2023-05-10T03:20:22;1.98;;;0.60;;
69417;SDS011;56610;48.872;2.400;2023-05-10T03:22:53;1.75;;;0.43;;
69417;SDS011;56610;48.872;2.400;2023-05-10T03:25:32;3.97;;;0.77;;
69417;SDS011;56610;48.872;2.400;2023-05-10T03:27:59;1.58;;;0.60;;
69417;SDS011;56610;48.872;2.400;2023-05-10T03:30:27;2.22;;;0.75;;
69417;SDS011;56610;48.872;2.400;2023-05-10T03:32:53;2.58;;;0.65;;
69417;SDS011;56610;48.872;2.400;2023-05-10T03:35:19;2.63;;;0.70;;
69417;SDS011;56610;48.872;2.400;2023-05-10T03:37:45;2.15;;;0.80;;
69417;SDS011;56610;48.872;2.400;2023-05-10T03:40:10;2.42;;;0.77;;
69417;SDS011;56610;48.872;2.400;2023-05-10T03:42:36;3.45;;;0.70;;
69417;SDS011;56610;48.872;2.400;2023-05-10T03:45:02;2.53;;;0.80;;
69417;SDS011;56610;48.872;2.400;2023-05-10T03:47:27;2.95;;;0.98;;
69417;SDS011;56610;48.872;2.400;2023-05-10T03:49:54;2.88;;;0.60;;
69417;SDS011;56610;48.872;2.400;2023-05-10T03:52:20;19.42;;;1.42;;
69417;SDS011;56610;48.872;2.400;2023-05-10T03:54:45;1.30;;;0.70;;
69417;SDS011;56610;48.872;2.400;2023-05-10T03:57:11;4.68;;;0.88;;
69417;SDS011;56610;48.872;2.400;2023-05-10T03:59:36;1.92;;;0.60;;
69417;SDS011;56610;48.872;2.400;2023-05-10T04:02:02;3.15;;;0.98;;
69417;SDS011;56610;48.872;2.400;2023-05-10T04:04:27;4.13;;;0.85;;
69417;SDS011;56610;48.872;2.400;2023-05-10T04:06:53;2.67;;;0.70;;
69417;SDS011;56610;48.872;2.400;2023-05-10T04:09:19;2.65;;;0.75;;
69417;SDS011;56610;48.872;2.400;2023-05-10T04:11:45;2.53;;;0.80;;
69417;SDS011;56610;48.872;2.400;2023-05-10T04:14:10;1.88;;;0.70;;
69417;SDS011;56610;48.872;2.400;2023-05-10T04:16:36;2.00;;;0.60;;
69417;SDS011;56610;48.872;2.400;2023-05-10T04:19:01;2.30;;;0.73;;
69417;SDS011;56610;48.872;2.400;2023-05-10T04:21:27;2.28;;;0.65;;
69417;SDS011;56610;48.872;2.400;2023-05-10T04:23:53;2.72;;;0.65;;
69417;SDS011;56610;48.872;2.400;2023-05-10T04:26:19;3.40;;;0.80;;
69417;SDS011;56610;48.872;2.400;2023-05-10T04:28:45;1.02;;;0.60;;
69417;SDS011;56610;48.872;2.400;2023-05-10T04:31:10;0.82;;;0.68;;
69417;SDS011;56610;48.872;2.400;2023-05-10T04:33:36;2.00;;;0.90;;
69417;SDS011;56610;48.872;2.400;2023-05-10T04:36:02;0.70;;;0.50;;
69417;SDS011;56610;48.872;2.400;2023-05-10T04:38:28;1.35;;;0.60;;
69417;SDS011;56610;48.872;2.400;2023-05-10T04:41:03;3.90;;;0.80;;
69417;SDS011;56610;48.872;2.400;2023-05-10T04:43:30;1.40;;;0.68;;
69417;SDS011;56610;48.872;2.400;2023-05-10T04:45:58;1.80;;;0.60;;
69417;SDS011;56610;48.872;2.400;2023-05-10T04:48:26;3.10;;;0.68;;
69417;SDS011;56610;48.872;2.400;2023-05-10T04:50:51;3.00;;;0.70;;
69417;SDS011;56610;48.872;2.400;2023-05-10T04:53:17;0.80;;;0.60;;
69417;SDS011;56610;48.872;2.400;2023-05-10T04:55:42;1.33;;;0.68;;
69417;SDS011;56610;48.872;2.400;2023-05-10T04:58:08;2.30;;;0.90;;
69417;SDS011;56610;48.872;2.400;2023-05-10T05:00:34;2.42;;;0.63;;
69417;SDS011;56610;48.872;2.400;2023-05-10T05:03:00;0.95;;;0.80;;
69417;SDS011;56610;48.872;2.400;2023-05-10T05:05:25;2.17;;;0.70;;
69417;SDS011;56610;48.872;2.400;2023-05-10T05:07:51;3.47;;;1.20;;
69417;SDS011;56610;48.872;2.400;2023-05-10T05:10:17;3.70;;;1.08;;
69417;SDS011;56610;48.872;2.400;2023-05-10T05:12:42;5.30;;;1.23;;
69417;SDS011;56610;48.872;2.400;2023-05-10T05:15:08;3.03;;;0.93;;
69417;SDS011;56610;48.872;2.400;2023-05-10T05:17:34;4.13;;;1.10;;
69417;SDS011;56610;48.872;2.400;2023-05-10T05:20:00;2.90;;;0.80;;
69417;SDS011;56610;48.872;2.400;2023-05-10T05:22:26;1.77;;;0.80;;
69417;SDS011;56610;48.872;2.400;2023-05-10T05:24:56;2.83;;;1.13;;
69417;SDS011;56610;48.872;2.400;2023-05-10T05:27:23;1.70;;;0.98;;
69417;SDS011;56610;48.872;2.400;2023-05-10T05:29:52;2.80;;;1.30;;
69417;SDS011;56610;48.872;2.400;2023-05-10T05:32:18;2.05;;;1.15;;
69417;SDS011;56610;48.872;2.400;2023-05-10T05:34:44;3.55;;;1.05;;
69417;SDS011;56610;48.872;2.400;2023-05-10T05:37:14;1.75;;;1.00;;
69417;SDS011;56610;48.872;2.400;2023-05-10T05:39:41;2.13;;;1.00;;
69417;SDS011;56610;48.872;2.400;2023-05-10T05:42:07;3.80;;;1.20;;
69417;SDS011;56610;48.872;2.400;2023-05-10T05:44:33;2.10;;;1.27;;
69417;SDS011;56610;48.872;2.400;2023-05-10T05:46:59;2.60;;;1.15;;
69417;SDS011;56610;48.872;2.400;2023-05-10T05:49:24;2.80;;;1.20;;
69417;SDS011;56610;48.872;2.400;2023-05-10T05:51:50;2.88;;;1.35;;
69417;SDS011;56610;48.872;2.400;2023-05-10T05:54:16;1.75;;;1.00;;
69417;SDS011;56610;48.872;2.400;2023-05-10T05:56:41;3.60;;;1.30;;
69417;SDS011;56610;48.872;2.400;2023-05-10T05:59:07;2.42;;;1.33;;
69417;SDS011;56610;48.872;2.400;2023-05-10T06:01:33;5.05;;;1.23;;
69417;SDS011;56610;48.872;2.400;2023-05-10T06:03:58;3.45;;;1.10;;
69417;SDS011;56610;48.872;2.400;2023-05-10T06:06:24;5.18;;;1.60;;
69417;SDS011;56610;48.872;2.400;2023-05-10T06:08:49;4.38;;;1.70;;
69417;SDS011;56610;48.872;2.400;2023-05-10T06:11:15;3.63;;;1.70;;
69417;SDS011;56610;48.872;2.400;2023-05-10T06:13:40;3.63;;;1.30;;
69417;SDS011;56610;48.872;2.400;2023-05-10T06:16:07;4.05;;;1.65;;
69417;SDS011;56610;48.872;2.400;2023-05-10T06:18:32;6.15;;;1.63;;
69417;SDS011;56610;48.872;2.400;2023-05-10T06:20:58;5.35;;;1.90;;
69417;SDS011;56610;48.872;2.400;2023-05-10T06:23:24;5.03;;;1.60;;
69417;SDS011;56610;48.872;2.400;2023-05-10T06:25:50;6.82;;;1.63;;
69417;SDS011;56610;48.872;2.400;2023-05-10T06:28:16;5.03;;;1.80;;
69417;SDS011;56610;48.872;2.400;2023-05-10T06:30:42;3.65;;;1.55;;
69417;SDS011;56610;48.872;2.400;2023-05-10T06:33:07;3.97;;;1.73;;
69417;SDS011;56610;48.872;2.400;2023-05-10T06:35:33;4.13;;;1.90;;
69417;SDS011;56610;48.872;2.400;2023-05-10T06:37:59;4.05;;;1.45;;
69417;SDS011;56610;48.872;2.400;2023-05-10T06:40:24;6.30;;;1.58;;
69417;SDS011;56610;48.872;2.400;2023-05-10T06:42:50;2.95;;;1.70;;
69417;SDS011;56610;48.872;2.400;2023-05-10T06:45:16;4.53;;;2.03;;
69417;SDS011;56610;48.872;2.400;2023-05-10T06:47:42;4.25;;;2.08;;
69417;SDS011;56610;48.872;2.400;2023-05-10T06:50:08;6.80;;;2.35;;
69417;SDS011;56610;48.872;2.400;2023-05-10T06:52:34;3.15;;;1.63;;
69417;SDS011;56610;48.872;2.400;2023-05-10T06:55:00;4.80;;;1.60;;
69417;SDS011;56610;48.872;2.400;2023-05-10T06:57:26;4.70;;;1.60;;
69417;SDS011;56610;48.872;2.400;2023-05-10T06:59:52;4.35;;;1.67;;
69417;SDS011;56610;48.872;2.400;2023-05-10T07:02:17;3.85;;;2.05;;
69417;SDS011;56610;48.872;2.400;2023-05-10T07:04:43;5.65;;;1.80;;
69417;SDS011;56610;48.872;2.400;2023-05-10T07:07:08;5.20;;;2.03;;
69417;SDS011;56610;48.872;2.400;2023-05-10T07:09:34;6.25;;;2.10;;
69417;SDS011;56610;48.872;2.400;2023-05-10T07:12:00;6.47;;;2.35;;
69417;SDS011;56610;48.872;2.400;2023-05-10T07:14:26;9.13;;;2.22;;
69417;SDS011;56610;48.872;2.400;2023-05-10T07:16:52;5.18;;;2.20;;
69417;SDS011;56610;48.872;2.400;2023-05-10T07:19:18;5.05;;;1.80;;
69417;SDS011;56610;48.872;2.400;2023-05-10T07:21:44;4.15;;;1.98;;
69417;SDS011;56610;48.872;2.400;2023-05-10T07:24:10;7.85;;;3.03;;
69417;SDS011;56610;48.872;2.400;2023-05-10T07:26:36;5.82;;;2.55;;
69417;SDS011;56610;48.872;2.400;2023-05-10T07:29:01;6.90;;;2.83;;
69417;SDS011;56610;48.872;2.400;2023-05-10T07:31:27;7.00;;;2.70;;
69417;SDS011;56610;48.872;2.400;2023-05-10T07:33:53;6.68;;;2.80;;
69417;SDS011;56610;48.872;2.400;2023-05-10T07:36:18;6.00;;;2.97;;
69417;SDS011;56610;48.872;2.400;2023-05-10T07:38:44;3.78;;;2.45;;
69417;SDS011;56610;48.872;2.400;2023-05-10T07:41:11;7.80;;;3.55;;
69417;SDS011;56610;48.872;2.400;2023-05-10T07:43:37;5.20;;;3.13;;
69417;SDS011;56610;48.872;2.400;2023-05-10T07:46:03;4.97;;;3.08;;
69417;SDS011;56610;48.872;2.400;2023-05-10T07:48:28;6.25;;;3.72;;
69417;SDS011;56610;48.872;2.400;2023-05-10T07:50:54;4.80;;;3.40;;
69417;SDS011;56610;48.872;2.400;2023-05-10T07:53:19;6.25;;;2.83;;
69417;SDS011;56610;48.872;2.400;2023-05-10T07:55:55;4.32;;;2.25;;
69417;SDS011;56610;48.872;2.400;2023-05-10T07:58:23;4.70;;;1.92;;
69417;SDS011;56610;48.872;2.400;2023-05-10T08:00:49;5.15;;;2.10;;
69417;SDS011;56610;48.872;2.400;2023-05-10T08:03:15;4.25;;;2.30;;
69417;SDS011;56610;48.872;2.400;2023-05-10T08:08:26;5.50;;;2.42;;
69417;SDS011;56610;48.872;2.400;2023-05-10T08:10:52;4.22;;;2.45;;
69417;SDS011;56610;48.872;2.400;2023-05-10T08:13:17;6.55;;;3.10;;
69417;SDS011;56610;48.872;2.400;2023-05-10T08:15:43;7.07;;;3.03;;
69417;SDS011;56610;48.872;2.400;2023-05-10T08:18:08;6.32;;;3.50;;
69417;SDS011;56610;48.872;2.400;2023-05-10T08:20:34;5.93;;;3.95;;
69417;SDS011;56610;48.872;2.400;2023-05-10T08:22:59;5.43;;;3.92;;
69417;SDS011;56610;48.872;2.400;2023-05-10T08:25:25;7.70;;;4.50;;
69417;SDS011;56610;48.872;2.400;2023-05-10T08:27:50;5.93;;;3.88;;
69417;SDS011;56610;48.872;2.400;2023-05-10T08:30:16;8.55;;;4.65;;
69417;SDS011;56610;48.872;2.400;2023-05-10T08:32:42;6.47;;;4.10;;
69417;SDS011;56610;48.872;2.400;2023-05-10T08:35:07;8.07;;;4.32;;
69417;SDS011;56610;48.872;2.400;2023-05-10T08:37:33;8.07;;;4.63;;
69417;SDS011;56610;48.872;2.400;2023-05-10T08:39:58;6.95;;;3.85;;
69417;SDS011;56610;48.872;2.400;2023-05-10T08:42:24;9.15;;;5.13;;
69417;SDS011;56610;48.872;2.400;2023-05-10T08:44:53;7.15;;;4.18;;
69417;SDS011;56610;48.872;2.400;2023-05-10T08:47:20;9.25;;;4.45;;
69417;SDS011;56610;48.872;2.400;2023-05-10T08:49:47;6.93;;;3.85;;
69417;SDS011;56610;48.872;2.400;2023-05-10T08:52:16;8.80;;;4.38;;
69417;SDS011;56610;48.872;2.400;2023-05-10T08:54:42;6.88;;;3.92;;
69417;SDS011;56610;48.872;2.400;2023-05-10T08:57:11;7.05;;;3.90;;
69417;SDS011;56610;48.872;2.400;2023-05-10T08:59:37;7.28;;;3.63;;
69417;SDS011;56610;48.872;2.400;2023-05-10T09:02:04;9.07;;;4.63;;
69417;SDS011;56610;48.872;2.400;2023-05-10T09:04:30;7.15;;;4.25;;
69417;SDS011;56610;48.872;2.400;2023-05-10T09:06:56;8.32;;;4.65;;
69417;SDS011;56610;48.872;2.400;2023-05-10T09:09:22;8.18;;;4.68;;
69417;SDS011;56610;48.872;2.400;2023-05-10T09:11:50;8.73;;;4.32;;
69417;SDS011;56610;48.872;2.400;2023-05-10T09:14:16;8.38;;;4.88;;
69417;SDS011;56610;48.872;2.400;2023-05-10T09:16:43;9.77;;;5.67;;
69417;SDS011;56610;48.872;2.400;2023-05-10T09:19:09;9.88;;;5.50;;
69417;SDS011;56610;48.872;2.400;2023-05-10T09:21:35;8.07;;;5.60;;
69417;SDS011;56610;48.872;2.400;2023-05-10T09:24:03;10.05;;;4.85;;
69417;SDS011;56610;48.872;2.400;2023-05-10T09:26:30;10.25;;;5.10;;
69417;SDS011;56610;48.872;2.400;2023-05-10T09:28:57;9.57;;;4.93;;
69417;SDS011;56610;48.872;2.400;2023-05-10T09:31:23;11.10;;;5.60;;
69417;SDS011;56610;48.872;2.400;2023-05-10T09:33:53;11.63;;;6.22;;
69417;SDS011;56610;48.872;2.400;2023-05-10T09:36:19;12.93;;;5.20;;
69417;SDS011;56610;48.872;2.400;2023-05-10T09:38:48;12.20;;;5.47;;
69417;SDS011;56610;48.872;2.400;2023-05-10T09:41:18;12.55;;;5.63;;
69417;SDS011;56610;48.872;2.400;2023-05-10T09:43:45;17.70;;;6.03;;
69417;SDS011;56610;48.872;2.400;2023-05-10T09:46:11;14.88;;;5.20;;
69417;SDS011;56610;48.872;2.400;2023-05-10T09:48:43;11.95;;;5.65;;
69417;SDS011;56610;48.872;2.400;2023-05-10T09:51:32;11.85;;;5.20;;
69417;SDS011;56610;48.872;2.400;2023-05-10T09:54:09;14.30;;;6.07;;
69417;SDS011;56610;48.872;2.400;2023-05-10T09:56:36;17.38;;;5.63;;
69417;SDS011;56610;48.872;2.400;2023-05-10T09:59:04;15.38;;;5.25;;
69417;SDS011;56610;48.872;2.400;2023-05-10T10:01:30;11.80;;;5.55;;
69417;SDS011;56610;48.872;2.400;2023-05-10T10:03:56;11.75;;;5.00;;
69417;SDS011;56610;48.872;2.400;2023-05-10T10:06:23;13.85;;;6.53;;
69417;SDS011;56610;48.872;2.400;2023-05-10T10:08:49;13.48;;;5.70;;
69417;SDS011;56610;48.872;2.400;2023-05-10T10:11:19;12.75;;;4.72;;
69417;SDS011;56610;48.872;2.400;2023-05-10T10:13:45;12.90;;;4.72;;
69417;SDS011;56610;48.872;2.400;2023-05-10T10:16:11;15.18;;;5.07;;
69417;SDS011;56610;48.872;2.400;2023-05-10T10:18:57;13.75;;;5.28;;
69417;SDS011;56610;48.872;2.400;2023-05-10T10:21:22;14.05;;;4.75;;
69417;SDS011;56610;48.872;2.400;2023-05-10T10:23:48;13.95;;;5.18;;
69417;SDS011;56610;48.872;2.400;2023-05-10T10:26:14;13.85;;;4.65;;
69417;SDS011;56610;48.872;2.400;2023-05-10T10:34:16;13.23;;;4.72;;
69417;SDS011;56610;48.872;2.400;2023-05-10T10:36:48;13.07;;;4.57;;
69417;SDS011;56610;48.872;2.400;2023-05-10T10:39:14;14.73;;;5.40;;
69417;SDS011;56610;48.872;2.400;2023-05-10T10:41:50;12.55;;;5.05;;
69417;SDS011;56610;48.872;2.400;2023-05-10T10:52:14;13.57;;;4.90;;
69417;SDS011;56610;48.872;2.400;2023-05-10T10:55:03;12.20;;;4.57;;
69417;SDS011;56610;48.872;2.400;2023-05-10T10:57:42;11.45;;;5.03;;
69417;SDS011;56610;48.872;2.400;2023-05-10T11:00:29;14.10;;;4.90;;
69417;SDS011;56610;48.872;2.400;2023-05-10T11:03:05;15.75;;;5.47;;
69417;SDS011;56610;48.872;2.400;2023-05-10T11:13:27;15.57;;;5.30;;
69417;SDS011;56610;48.872;2.400;2023-05-10T11:15:56;15.07;;;5.50;;
69417;SDS011;56610;48.872;2.400;2023-05-10T11:18:24;18.05;;;5.50;;
69417;SDS011;56610;48.872;2.400;2023-05-10T11:20:52;14.95;;;4.80;;
69417;SDS011;56610;48.872;2.400;2023-05-10T11:23:22;13.63;;;4.60;;
69417;SDS011;56610;48.872;2.400;2023-05-10T11:25:48;13.18;;;4.22;;
69417;SDS011;56610;48.872;2.400;2023-05-10T11:28:16;13.73;;;5.03;;
69417;SDS011;56610;48.872;2.400;2023-05-10T11:30:44;10.73;;;4.25;;
69417;SDS011;56610;48.872;2.400;2023-05-10T11:33:14;12.30;;;4.75;;
69417;SDS011;56610;48.872;2.400;2023-05-10T11:35:44;14.57;;;4.90;;
69417;SDS011;56610;48.872;2.400;2023-05-10T11:38:11;12.77;;;3.97;;
69417;SDS011;56610;48.872;2.400;2023-05-10T11:40:37;7.65;;;3.50;;
69417;SDS011;56610;48.872;2.400;2023-05-10T11:43:04;11.07;;;3.88;;
69417;SDS011;56610;48.872;2.400;2023-05-10T11:45:34;11.55;;;4.07;;
69417;SDS011;56610;48.872;2.400;2023-05-10T11:48:00;7.13;;;3.20;;
69417;SDS011;56610;48.872;2.400;2023-05-10T11:50:26;9.85;;;3.83;;
69417;SDS011;56610;48.872;2.400;2023-05-10T11:52:56;10.30;;;4.28;;
69417;SDS011;56610;48.872;2.400;2023-05-10T11:55:23;7.93;;;3.67;;
69417;SDS011;56610;48.872;2.400;2023-05-10T11:57:52;11.95;;;4.10;;
69417;SDS011;56610;48.872;2.400;2023-05-10T12:00:18;10.07;;;3.72;;
69417;SDS011;56610;48.872;2.400;2023-05-10T12:02:44;9.07;;;3.40;;
69417;SDS011;56610;48.872;2.400;2023-05-10T12:05:10;9.32;;;3.53;;
69417;SDS011;56610;48.872;2.400;2023-05-10T12:07:36;13.23;;;3.67;;
69417;SDS011;56610;48.872;2.400;2023-05-10T12:12:38;12.02;;;3.60;;
69417;SDS011;56610;48.872;2.400;2023-05-10T12:15:20;9.77;;;3.20;;
69417;SDS011;56610;48.872;2.400;2023-05-10T12:17:48;7.88;;;3.20;;
69417;SDS011;56610;48.872;2.400;2023-05-10T12:22:46;7.97;;;2.92;;
69417;SDS011;56610;48.872;2.400;2023-05-10T12:25:19;10.57;;;3.00;;
69417;SDS011;56610;48.872;2.400;2023-05-10T12:27:47;10.77;;;3.53;;
69417;SDS011;56610;48.872;2.400;2023-05-10T12:30:20;8.63;;;3.20;;
69417;SDS011;56610;48.872;2.400;2023-05-10T12:32:47;5.97;;;2.85;;
69417;SDS011;56610;48.872;2.400;2023-05-10T12:35:12;10.13;;;3.33;;
69417;SDS011;56610;48.872;2.400;2023-05-10T12:37:38;9.27;;;3.25;;
69417;SDS011;56610;48.872;2.400;2023-05-10T12:40:08;8.48;;;2.70;;
69417;SDS011;56610;48.872;2.400;2023-05-10T12:42:38;8.05;;;2.72;;
69417;SDS011;56610;48.872;2.400;2023-05-10T12:45:04;8.60;;;3.20;;
69417;SDS011;56610;48.872;2.400;2023-05-10T12:47:34;8.63;;;3.22;;
69417;SDS011;56610;48.872;2.400;2023-05-10T12:50:00;9.25;;;2.75;;
69417;SDS011;56610;48.872;2.400;2023-05-10T12:52:26;7.82;;;2.88;;
69417;SDS011;56610;48.872;2.400;2023-05-10T12:54:53;9.65;;;3.00;;
69417;SDS011;56610;48.872;2.400;2023-05-10T12:57:19;10.32;;;3.42;;
69417;SDS011;56610;48.872;2.400;2023-05-10T12:59:45;8.02;;;3.00;;
69417;SDS011;56610;48.872;2.400;2023-05-10T13:02:11;6.55;;;3.17;;
69417;SDS011;56610;48.872;2.400;2023-05-10T13:04:37;9.80;;;2.95;;
69417;SDS011;56610;48.872;2.400;2023-05-10T13:07:05;8.48;;;3.17;;
69417;SDS011;56610;48.872;2.400;2023-05-10T13:09:34;9.55;;;3.25;;
69417;SDS011;56610;48.872;2.400;2023-05-10T13:12:00;7.97;;;3.65;;
69417;SDS011;56610;48.872;2.400;2023-05-10T13:14:26;7.35;;;3.20;;
69417;SDS011;56610;48.872;2.400;2023-05-10T13:16:52;8.70;;;2.97;;
69417;SDS011;56610;48.872;2.400;2023-05-10T13:19:18;9.73;;;4.07;;
69417;SDS011;56610;48.872;2.400;2023-05-10T13:21:44;11.77;;;4.18;;
69417;SDS011;56610;48.872;2.400;2023-05-10T13:24:10;9.38;;;3.60;;
69417;SDS011;56610;48.872;2.400;2023-05-10T13:26:38;9.75;;;3.58;;
69417;SDS011;56610;48.872;2.400;2023-05-10T13:29:05;8.77;;;3.33;;
69417;SDS011;56610;48.872;2.400;2023-05-10T13:31:30;9.57;;;3.25;;
69417;SDS011;56610;48.872;2.400;2023-05-10T13:33:56;10.65;;;3.50;;
69417;SDS011;56610;48.872;2.400;2023-05-10T13:36:21;9.73;;;3.40;;
69417;SDS011;56610;48.872;2.400;2023-05-10T13:38:47;10.05;;;3.35;;
69417;SDS011;56610;48.872;2.400;2023-05-10T13:41:13;12.63;;;4.25;;
69417;SDS011;56610;48.872;2.400;2023-05-10T13:43:39;7.10;;;3.20;;
69417;SDS011;56610;48.872;2.400;2023-05-10T13:46:05;11.95;;;3.70;;
69417;SDS011;56610;48.872;2.400;2023-05-10T13:48:30;10.50;;;3.25;;
69417;SDS011;56610;48.872;2.400;2023-05-10T13:50:56;9.07;;;3.13;;
69417;SDS011;56610;48.872;2.400;2023-05-10T13:53:21;7.35;;;3.00;;
69417;SDS011;56610;48.872;2.400;2023-05-10T13:55:47;7.90;;;3.17;;
69417;SDS011;56610;48.872;2.400;2023-05-10T13:58:13;9.15;;;3.70;;
69417;SDS011;56610;48.872;2.400;2023-05-10T14:00:39;8.85;;;2.80;;
69417;SDS011;56610;48.872;2.400;2023-05-10T14:03:05;7.85;;;2.85;;
69417;SDS011;56610;48.872;2.400;2023-05-10T14:05:31;10.00;;;3.00;;
69417;SDS011;56610;48.872;2.400;2023-05-10T14:07:57;7.80;;;3.13;;
69417;SDS011;56610;48.872;2.400;2023-05-10T14:10:23;6.03;;;2.28;;
69417;SDS011;56610;48.872;2.400;2023-05-10T14:12:49;10.48;;;3.28;;
69417;SDS011;56610;48.872;2.400;2023-05-10T14:15:14;7.47;;;2.90;;
69417;SDS011;56610;48.872;2.400;2023-05-10T14:17:40;9.20;;;3.33;;
69417;SDS011;56610;48.872;2.400;2023-05-10T14:20:06;10.85;;;2.88;;
69417;SDS011;56610;48.872;2.400;2023-05-10T14:22:32;8.00;;;3.08;;
69417;SDS011;56610;48.872;2.400;2023-05-10T14:24:58;7.88;;;2.65;;
69417;SDS011;56610;48.872;2.400;2023-05-10T14:27:23;8.95;;;2.97;;
69417;SDS011;56610;48.872;2.400;2023-05-10T14:30:09;9.38;;;3.33;;
69417;SDS011;56610;48.872;2.400;2023-05-10T14:32:35;11.73;;;3.20;;
69417;SDS011;56610;48.872;2.400;2023-05-10T14:35:02;8.57;;;2.88;;
69417;SDS011;56610;48.872;2.400;2023-05-10T14:37:28;9.65;;;2.65;;
69417;SDS011;56610;48.872;2.400;2023-05-10T14:39:53;9.30;;;3.03;;
69417;SDS011;56610;48.872;2.400;2023-05-10T14:42:19;6.68;;;2.58;;
69417;SDS011;56610;48.872;2.400;2023-05-10T14:44:44;8.38;;;2.95;;
69417;SDS011;56610;48.872;2.400;2023-05-10T14:47:10;9.95;;;3.13;;
69417;SDS011;56610;48.872;2.400;2023-05-10T14:49:36;5.93;;;2.20;;
69417;SDS011;56610;48.872;2.400;2023-05-10T14:52:01;6.40;;;2.25;;
69417;SDS011;56610;48.872;2.400;2023-05-10T14:54:28;6.60;;;2.72;;
69417;SDS011;56610;48.872;2.400;2023-05-10T14:56:53;5.75;;;2.28;;
69417;SDS011;56610;48.872;2.400;2023-05-10T14:59:20;7.88;;;2.38;;
69417;SDS011;56610;48.872;2.400;2023-05-10T15:01:45;6.53;;;2.28;;
69417;SDS011;56610;48.872;2.400;2023-05-10T15:04:11;7.30;;;2.67;;
69417;SDS011;56610;48.872;2.400;2023-05-10T15:06:38;6.65;;;2.42;;
69417;SDS011;56610;48.872;2.400;2023-05-10T15:09:04;7.10;;;2.50;;
69417;SDS011;56610;48.872;2.400;2023-05-10T15:11:29;5.03;;;2.20;;
69417;SDS011;56610;48.872;2.400;2023-05-10T15:13:55;7.50;;;2.40;;
69417;SDS011;56610;48.872;2.400;2023-05-10T15:16:20;6.07;;;1.92;;
69417;SDS011;56610;48.872;2.400;2023-05-10T15:18:47;5.75;;;2.30;;
69417;SDS011;56610;48.872;2.400;2023-05-10T15:21:13;6.43;;;2.00;;
69417;SDS011;56610;48.872;2.400;2023-05-10T15:23:38;8.32;;;2.50;;
69417;SDS011;56610;48.872;2.400;2023-05-10T15:26:04;5.80;;;2.00;;
69417;SDS011;56610;48.872;2.400;2023-05-10T15:28:31;4.07;;;1.63;;
69417;SDS011;56610;48.872;2.400;2023-05-10T15:30:57;3.15;;;1.40;;
69417;SDS011;56610;48.872;2.400;2023-05-10T15:33:22;6.13;;;1.60;;